Time;durP1;ratioP1;P1;durP2;ratioP2;P2;SDS_P1;SDS_P2;PMS_P1;PMS_P2;Temp;Humidity;BMP_temperature;BMP_pressure;BME280_temperature;BME280_humidity;BME280_pressure;Samples;Min_cycle;Max_cycle;Signal;HPM_P1;HPM_P2
2022/05/05 00:02:02;;;;;;;11.20;7.65;;;7.40;99.90;;;;;;5026603;28;20055;-72
2022/05/05 00:04:27;;;;;;;10.73;7.65;;;7.40;99.90;;;;;;5028192;28;20553;-72
2022/05/05 00:06:53;;;;;;;12.95;7.90;;;7.30;99.90;;;;;;5028435;28;20116;-72
2022/05/05 00:09:19;;;;;;;12.85;9.25;;;7.30;99.90;;;;;;5026665;28;20045;-72
2022/05/05 00:14:31;;;;;;;12.70;8.02;;;7.30;99.90;;;;;;5026418;28;20053;-72
2022/05/05 00:17:10;;;;;;;12.63;7.88;;;7.30;99.90;;;;;;5028752;28;20270;-72
2022/05/05 00:19:38;;;;;;;20.13;8.63;;;7.20;99.90;;;;;;5024721;28;20620;-72
2022/05/05 00:22:05;;;;;;;12.25;8.13;;;7.20;99.90;;;;;;5026790;28;20041;-72
2022/05/05 00:24:32;;;;;;;11.32;7.93;;;7.20;99.90;;;;;;5027429;28;20077;-72
2022/05/05 00:26:58;;;;;;;13.20;8.60;;;7.20;99.90;;;;;;5025873;28;20136;-72
2022/05/05 00:29:24;;;;;;;12.52;8.07;;;7.90;99.90;;;;;;5027021;28;20037;-72
2022/05/05 00:31:50;;;;;;;11.93;8.60;;;7.20;99.90;;;;;;5027979;28;20087;-72
2022/05/05 00:34:16;;;;;;;15.38;8.07;;;7.20;99.90;;;;;;5026954;28;20103;-72
2022/05/05 00:36:42;;;;;;;12.15;8.05;;;7.30;99.90;;;;;;5027883;28;20045;-72
2022/05/05 00:39:10;;;;;;;12.65;7.82;;;7.30;99.90;;;;;;5026153;28;20130;-72
2022/05/05 00:41:39;;;;;;;10.35;6.82;;;7.30;99.90;;;;;;5026670;28;20054;-72
2022/05/05 00:44:05;;;;;;;13.50;7.70;;;7.30;99.90;;;;;;5027293;28;20503;-72
2022/05/05 00:46:31;;;;;;;10.27;7.00;;;7.30;99.90;;;;;;5026676;28;20504;-72
2022/05/05 00:48:58;;;;;;;14.38;8.38;;;7.30;99.90;;;;;;5026035;28;20053;-72
2022/05/05 00:51:24;;;;;;;10.40;7.47;;;7.30;99.90;;;;;;5027877;28;20064;-73
2022/05/05 00:53:50;;;;;;;10.68;7.63;;;7.30;99.90;;;;;;5024543;28;20403;-72
2022/05/05 00:56:17;;;;;;;13.02;8.73;;;7.30;99.90;;;;;;5026842;28;20052;-72
2022/05/05 00:58:46;;;;;;;12.32;7.78;;;7.30;99.90;;;;;;5026085;28;20088;-72
2022/05/05 01:01:17;;;;;;;11.77;8.30;;;7.30;99.90;;;;;;5026521;28;20052;-72
2022/05/05 01:03:44;;;;;;;8.98;6.88;;;7.30;99.90;;;;;;5025768;28;20053;-72
2022/05/05 01:06:09;;;;;;;13.55;7.95;;;7.40;99.90;;;;;;5025549;28;20089;-72
2022/05/05 01:08:36;;;;;;;17.65;7.90;;;7.40;99.90;;;;;;5026241;28;20432;-71
2022/05/05 01:11:03;;;;;;;14.93;7.30;;;7.40;99.90;;;;;;5025329;28;20053;-72
2022/05/05 01:13:29;;;;;;;12.65;7.35;;;7.40;99.90;;;;;;5026204;28;20049;-72
2022/05/05 01:15:56;;;;;;;12.73;8.13;;;7.50;99.90;;;;;;5026965;28;20040;-72
2022/05/05 01:18:22;;;;;;;12.27;6.75;;;7.50;99.90;;;;;;5026795;28;20041;-72
2022/05/05 01:20:50;;;;;;;11.32;7.13;;;7.50;99.90;;;;;;5026840;28;20053;-72
2022/05/05 01:23:16;;;;;;;13.05;7.38;;;7.50;99.90;;;;;;5025031;28;20055;-72
2022/05/05 01:28:30;;;;;;;10.98;7.70;;;7.50;99.90;;;;;;5027451;28;20136;-72
2022/05/05 01:30:57;;;;;;;11.38;7.05;;;7.50;99.90;;;;;;5027258;28;20045;-72
2022/05/05 01:33:28;;;;;;;9.55;6.85;;;7.50;99.90;;;;;;5026948;28;20116;-72
2022/05/05 01:35:58;;;;;;;10.48;6.93;;;7.50;99.90;;;;;;5025773;28;20554;-72
2022/05/05 01:38:35;;;;;;;11.90;7.22;;;7.50;99.90;;;;;;5027394;28;20048;-72
2022/05/05 01:41:05;;;;;;;13.43;6.45;;;7.50;99.90;;;;;;5025255;28;20060;-72
2022/05/05 01:43:31;;;;;;;13.52;7.28;;;8.60;99.90;;;;;;5026076;28;20049;-72
2022/05/05 01:45:57;;;;;;;8.48;5.75;;;7.60;99.90;;;;;;5025648;28;20049;-72
2022/05/05 01:48:23;;;;;;;13.60;7.93;;;7.60;99.90;;;;;;5026503;28;20144;-72
2022/05/05 01:50:48;;;;;;;10.45;7.03;;;7.60;99.90;;;;;;5024782;28;20132;-72
2022/05/05 01:53:14;;;;;;;11.77;6.97;;;7.60;99.90;;;;;;5026050;28;20053;-72
2022/05/05 01:55:40;;;;;;;10.68;6.80;;;7.60;99.90;;;;;;5026068;28;20056;-72
2022/05/05 01:58:06;;;;;;;7.68;6.63;;;7.60;99.90;;;;;;5025415;28;20045;-72
2022/05/05 02:00:32;;;;;;;13.40;6.88;;;7.60;99.90;;;;;;5026429;28;20132;-72
2022/05/05 02:02:58;;;;;;;14.10;6.25;;;7.60;99.90;;;;;;5026539;28;20045;-72
2022/05/05 02:05:24;;;;;;;9.75;6.38;;;7.50;99.90;;;;;;5024858;28;20056;-72
2022/05/05 02:07:50;;;;;;;14.40;6.88;;;7.50;99.90;;;;;;5026176;28;20419;-72
2022/05/05 02:10:17;;;;;;;10.45;6.65;;;7.50;99.90;;;;;;5024459;28;20049;-72
2022/05/05 02:12:45;;;;;;;10.77;7.28;;;7.50;99.90;;;;;;5025437;28;20049;-72
2022/05/05 02:15:13;;;;;;;11.07;6.97;;;7.50;99.90;;;;;;5024507;28;20049;-72
2022/05/05 02:17:42;;;;;;;9.23;6.35;;;7.50;99.90;;;;;;5025965;28;20747;-72
2022/05/05 02:20:11;;;;;;;11.02;6.65;;;7.40;99.90;;;;;;5025755;28;20084;-72
2022/05/05 02:22:37;;;;;;;12.82;6.90;;;7.40;99.90;;;;;;5024956;28;20045;-72
2022/05/05 02:25:03;;;;;;;13.57;6.80;;;7.40;99.90;;;;;;5024993;28;20099;-72
2022/05/05 02:27:28;;;;;;;7.57;6.25;;;7.40;99.90;;;;;;5026341;28;20060;-72
2022/05/05 02:29:54;;;;;;;11.70;6.65;;;7.40;99.90;;;;;;5025322;28;20431;-72
2022/05/05 02:32:20;;;;;;;7.88;6.63;;;7.40;99.90;;;;;;5025262;28;20042;-72
2022/05/05 02:34:46;;;;;;;9.75;7.45;;;7.40;99.90;;;;;;5029082;28;20081;-72
2022/05/05 02:39:57;;;;;;;10.90;6.35;;;7.30;99.90;;;;;;5029597;28;20492;-72
2022/05/05 02:42:23;;;;;;;18.80;8.32;;;8.70;99.90;;;;;;5028638;28;20132;-72
2022/05/05 02:44:49;;;;;;;10.82;6.47;;;7.30;99.90;;;;;;5029640;28;20139;-72
2022/05/05 02:47:14;;;;;;;14.25;7.10;;;7.30;99.90;;;;;;5028876;28;20128;-72
2022/05/05 02:49:40;;;;;;;10.45;7.10;;;7.30;99.90;;;;;;5029435;28;20041;-72
2022/05/05 02:52:07;;;;;;;9.48;7.18;;;7.30;99.90;;;;;;5028119;28;20068;-72
2022/05/05 02:54:52;;;;;;;11.95;7.82;;;7.30;99.90;;;;;;5027436;28;20041;-72
2022/05/05 02:57:20;;;;;;;12.40;7.15;;;7.20;99.90;;;;;;5027792;28;20049;-72
2022/05/05 02:59:47;;;;;;;13.65;7.00;;;7.20;99.90;;;;;;5029541;28;20063;-72
2022/05/05 03:02:13;;;;;;;8.52;5.75;;;7.20;99.90;;;;;;5027102;28;20055;-72
2022/05/05 03:04:39;;;;;;;12.70;6.28;;;7.20;99.90;;;;;;5029436;28;20116;-72
2022/05/05 03:07:05;;;;;;;14.52;6.95;;;7.20;99.90;;;;;;5027075;28;20503;-72
2022/05/05 03:09:31;;;;;;;8.63;6.13;;;7.20;99.90;;;;;;5027763;28;20049;-72
2022/05/05 03:11:56;;;;;;;13.68;6.68;;;7.20;99.90;;;;;;5029970;28;20038;-72
2022/05/05 03:14:22;;;;;;;10.75;6.07;;;7.20;99.90;;;;;;5026961;28;20562;-72
2022/05/05 03:16:47;;;;;;;8.32;6.32;;;7.20;99.90;;;;;;5029201;28;20049;-72
2022/05/05 03:19:13;;;;;;;7.00;5.68;;;7.20;99.90;;;;;;5027505;28;20136;-72
2022/05/05 03:21:38;;;;;;;9.93;5.90;;;7.20;99.90;;;;;;5027255;28;20045;-72
2022/05/05 03:24:05;;;;;;;8.65;5.60;;;7.20;99.90;;;;;;5027278;28;20045;-72
2022/05/05 03:26:31;;;;;;;12.35;5.75;;;7.20;99.90;;;;;;5029264;28;20053;-72
2022/05/05 03:28:56;;;;;;;11.73;5.70;;;7.20;99.90;;;;;;5028797;28;20140;-72
2022/05/05 03:31:22;;;;;;;5.90;4.80;;;7.20;99.90;;;;;;5028824;28;20149;-72
2022/05/05 03:33:48;;;;;;;9.75;4.85;;;7.20;99.90;;;;;;5027375;28;20045;-72
2022/05/05 03:36:14;;;;;;;9.85;5.32;;;7.20;99.90;;;;;;5027636;28;20129;-72
2022/05/05 03:38:39;;;;;;;7.53;5.05;;;7.20;99.90;;;;;;5027400;28;20045;-72
2022/05/05 03:41:05;;;;;;;9.82;5.25;;;7.20;99.90;;;;;;5028380;28;20037;-72
2022/05/05 03:43:31;;;;;;;7.97;5.47;;;7.30;99.90;;;;;;5028189;28;20051;-72
2022/05/05 03:45:57;;;;;;;7.05;5.50;;;7.30;99.90;;;;;;5028219;28;20461;-72
2022/05/05 03:48:24;;;;;;;13.50;5.70;;;7.30;99.90;;;;;;5027460;28;20053;-72
2022/05/05 03:50:49;;;;;;;9.57;5.50;;;7.30;99.90;;;;;;5027848;28;20103;-72
2022/05/05 03:53:15;;;;;;;7.28;5.68;;;7.30;99.90;;;;;;5027851;28;20057;-72
2022/05/05 03:55:41;;;;;;;9.15;5.57;;;7.30;99.90;;;;;;5028409;28;20068;-72
2022/05/05 03:58:06;;;;;;;8.93;6.07;;;7.30;99.90;;;;;;5027542;28;20054;-72
2022/05/05 04:00:32;;;;;;;9.77;5.95;;;7.30;99.90;;;;;;5028421;28;20407;-73
2022/05/05 04:05:42;;;;;;;12.82;6.25;;;7.30;99.90;;;;;;5026666;28;20136;-72
2022/05/05 04:08:08;;;;;;;11.73;6.53;;;7.20;99.90;;;;;;5026532;28;20136;-72
2022/05/05 04:10:33;;;;;;;14.10;6.63;;;7.20;99.90;;;;;;5025220;28;20149;-72
2022/05/05 04:12:59;;;;;;;12.10;6.25;;;7.20;99.90;;;;;;5024544;28;20194;-73
2022/05/05 04:15:25;;;;;;;10.82;6.38;;;7.30;99.90;;;;;;5027448;28;20096;-72
2022/05/05 04:17:51;;;;;;;10.10;6.15;;;7.20;99.90;;;;;;5024686;28;20128;-72
2022/05/05 04:20:17;;;;;;;12.68;7.05;;;7.20;99.90;;;;;;5025971;28;20162;-72
2022/05/05 04:22:43;;;;;;;12.15;6.20;;;7.30;99.90;;;;;;5025905;28;20547;-72
2022/05/05 04:25:12;;;;;;;7.55;6.47;;;7.30;99.90;;;;;;5024380;28;20068;-72
2022/05/05 04:27:38;;;;;;;15.60;7.47;;;7.30;99.90;;;;;;5024425;28;20550;-72
2022/05/05 04:30:05;;;;;;;12.82;6.57;;;7.30;99.90;;;;;;5024398;28;20053;-72
2022/05/05 04:32:30;;;;;;;13.23;7.72;;;7.30;99.90;;;;;;5024171;28;20080;-72
2022/05/05 04:34:56;;;;;;;14.10;7.97;;;7.30;99.90;;;;;;5020662;28;20089;-72
2022/05/05 04:37:22;;;;;;;12.18;6.53;;;7.30;99.90;;;;;;5026122;28;20042;-72
2022/05/05 04:39:48;;;;;;;14.70;7.65;;;7.30;99.90;;;;;;5023373;28;20053;-72
2022/05/05 04:42:14;;;;;;;9.88;7.00;;;7.30;99.90;;;;;;5025742;28;20041;-72
2022/05/05 04:44:39;;;;;;;8.02;6.47;;;7.30;99.90;;;;;;5024345;28;20139;-72
2022/05/05 04:47:05;;;;;;;8.68;6.60;;;7.30;99.90;;;;;;5022710;28;20069;-72
2022/05/05 04:49:31;;;;;;;13.43;6.80;;;7.30;99.90;;;;;;5025925;28;20084;-72
2022/05/05 04:51:57;;;;;;;12.75;6.93;;;7.40;99.90;;;;;;5024361;28;20068;-72
2022/05/05 04:54:23;;;;;;;8.57;7.50;;;7.40;99.90;;;;;;5025185;28;20045;-72
2022/05/05 04:56:48;;;;;;;12.52;7.80;;;7.40;99.90;;;;;;5024170;28;20973;-72
2022/05/05 04:59:14;;;;;;;14.70;8.30;;;7.40;99.90;;;;;;5024231;28;20193;-72
2022/05/05 05:01:40;;;;;;;12.07;7.20;;;7.50;99.90;;;;;;5024817;28;20107;-72
2022/05/05 05:04:06;;;;;;;13.05;7.75;;;7.50;99.90;;;;;;5024999;28;20030;-73
2022/05/05 05:06:32;;;;;;;11.73;7.88;;;7.50;99.90;;;;;;5022745;28;20150;-73
2022/05/05 05:08:58;;;;;;;8.45;6.40;;;7.50;99.90;;;;;;5022926;28;20111;-73
2022/05/05 05:11:24;;;;;;;12.50;8.45;;;7.50;99.90;;;;;;5026202;28;20041;-72
2022/05/05 05:13:50;;;;;;;15.50;8.25;;;7.60;99.90;;;;;;5024184;28;20499;-72
2022/05/05 05:16:16;;;;;;;8.25;7.38;;;7.60;99.90;;;;;;5025158;28;20052;-72
2022/05/05 05:18:41;;;;;;;14.88;7.88;;;7.60;99.90;;;;;;5024589;28;20045;-72
2022/05/05 05:21:07;;;;;;;8.20;6.82;;;7.60;99.90;;;;;;5023195;28;20041;-72
2022/05/05 05:23:33;;;;;;;7.47;6.60;;;7.60;99.90;;;;;;5020933;28;20049;-72
2022/05/05 05:25:58;;;;;;;7.22;6.53;;;7.70;99.90;;;;;;5023264;28;20042;-73
2022/05/05 05:28:24;;;;;;;10.40;6.50;;;7.70;99.90;;;;;;5024127;28;20056;-72
2022/05/05 05:30:50;;;;;;;11.98;7.13;;;7.70;99.90;;;;;;5022720;28;20047;-72
2022/05/05 05:33:16;;;;;;;10.73;6.63;;;7.80;99.90;;;;;;5024777;28;20037;-72
2022/05/05 05:35:44;;;;;;;11.43;7.25;;;7.80;99.90;;;;;;5023870;28;20570;-72
2022/05/05 05:38:11;;;;;;;8.55;6.43;;;7.90;99.90;;;;;;5024596;28;20057;-72
2022/05/05 05:40:37;;;;;;;10.77;7.20;;;7.90;99.90;;;;;;5023562;28;20065;-73
2022/05/05 05:43:03;;;;;;;11.85;6.75;;;7.90;99.90;;;;;;5023819;28;20510;-73
2022/05/05 05:45:29;;;;;;;11.18;7.28;;;8.00;99.90;;;;;;5025093;28;20042;-73
2022/05/05 05:47:55;;;;;;;11.00;7.10;;;8.10;99.90;;;;;;5024790;28;20071;-73
2022/05/05 05:50:21;;;;;;;11.02;6.53;;;8.10;99.90;;;;;;5024084;28;20049;-72
2022/05/05 05:52:47;;;;;;;11.02;6.63;;;8.10;99.90;;;;;;5024098;28;20060;-72
2022/05/05 05:55:14;;;;;;;8.15;5.95;;;8.20;99.90;;;;;;5023275;28;20053;-72
2022/05/05 05:57:39;;;;;;;10.77;7.28;;;8.30;99.90;;;;;;5023300;28;20451;-72
2022/05/05 06:00:06;;;;;;;10.15;7.25;;;8.30;99.90;;;;;;5019488;28;20046;-73
2022/05/05 06:05:15;;;;;;;15.50;8.65;;;8.40;99.90;;;;;;5024859;28;20049;-73
2022/05/05 06:07:41;;;;;;;11.55;7.97;;;8.50;99.90;;;;;;5022394;28;20055;-72
2022/05/05 06:10:07;;;;;;;12.93;8.27;;;8.50;99.90;;;;;;5022677;28;20041;-72
2022/05/05 06:12:33;;;;;;;15.25;8.52;;;8.60;99.90;;;;;;5024837;28;20128;-72
2022/05/05 06:14:58;;;;;;;14.85;8.40;;;8.60;99.90;;;;;;5023950;28;20041;-73
2022/05/05 06:17:24;;;;;;;14.73;9.07;;;8.70;99.90;;;;;;5024746;28;20094;-72
2022/05/05 06:19:50;;;;;;;14.43;8.35;;;8.70;99.90;;;;;;5024085;28;20056;-72
2022/05/05 06:22:15;;;;;;;14.75;8.55;;;8.80;99.90;;;;;;5024538;28;20136;-72
2022/05/05 06:24:41;;;;;;;15.25;8.25;;;8.80;99.90;;;;;;5022287;28;20240;-72
2022/05/05 06:27:07;;;;;;;13.65;8.15;;;8.90;99.90;;;;;;5023756;28;20419;-72
2022/05/05 06:29:32;;;;;;;11.93;7.32;;;9.00;99.90;;;;;;5023339;28;20065;-73
2022/05/05 06:31:58;;;;;;;14.73;7.90;;;9.30;99.90;;;;;;5022141;28;20499;-73
2022/05/05 06:34:24;;;;;;;16.90;8.43;;;9.10;99.90;;;;;;5035496;28;20037;-72
2022/05/05 06:36:49;;;;;;;17.10;7.15;;;9.20;99.90;;;;;;5026068;28;20049;-72
2022/05/05 06:39:15;;;;;;;12.90;6.85;;;9.30;99.90;;;;;;5021639;28;20049;-72
2022/05/05 06:41:40;;;;;;;9.95;5.97;;;9.30;99.90;;;;;;5023984;28;20196;-72
2022/05/05 06:44:06;;;;;;;14.13;6.40;;;9.40;99.90;;;;;;5023208;28;20119;-73
2022/05/05 06:46:32;;;;;;;10.80;6.38;;;9.40;99.90;;;;;;5023549;28;20062;-73
2022/05/05 06:48:58;;;;;;;9.40;6.30;;;9.50;99.90;;;;;;5025042;28;20107;-73
2022/05/05 06:51:23;;;;;;;15.88;5.97;;;9.60;99.90;;;;;;5024030;28;20103;-71
2022/05/05 06:53:49;;;;;;;11.15;5.80;;;9.60;99.90;;;;;;5023740;28;20067;-72
2022/05/05 06:56:14;;;;;;;9.57;5.53;;;9.70;99.90;;;;;;5024594;28;20133;-72
2022/05/05 06:58:40;;;;;;;8.13;5.82;;;9.80;99.90;;;;;;5023938;28;20045;-72
2022/05/05 07:05:23;;;;;;;12.60;6.18;;;9.90;99.90;;;;;;5024392;28;20046;-72
2022/05/05 07:06:38;;;;;;;13.27;5.88;;;10.00;99.90;;;;;;5018373;28;20053;-72
2022/05/05 07:11:48;;;;;;;9.43;5.78;;;10.20;99.90;;;;;;5025036;28;20057;-72
2022/05/05 07:14:13;;;;;;;20.73;6.90;;;10.20;99.90;;;;;;5023132;28;20099;-72
2022/05/05 07:16:39;;;;;;;12.10;5.85;;;10.30;99.90;;;;;;5024880;28;20057;-72
2022/05/05 07:19:04;;;;;;;11.18;5.93;;;10.40;99.90;;;;;;5024573;28;20117;-71
2022/05/05 07:21:30;;;;;;;11.57;5.68;;;10.50;99.90;;;;;;5030377;28;20077;-72
2022/05/05 07:23:56;;;;;;;10.07;5.53;;;10.60;99.90;;;;;;5027584;28;20053;-72
2022/05/05 07:26:22;;;;;;;6.70;4.55;;;10.60;99.90;;;;;;5027456;28;20061;-72
2022/05/05 07:28:48;;;;;;;11.65;6.10;;;10.70;99.90;;;;;;5025554;28;20041;-68
2022/05/05 07:31:13;;;;;;;12.45;5.60;;;10.80;99.90;;;;;;5009395;28;20579;-69
2022/05/05 07:33:45;;;;;;;10.77;5.30;;;10.90;99.90;;;;;;5007369;28;20049;-68
2022/05/05 07:36:11;;;;;;;10.93;5.25;;;11.00;99.90;;;;;;5026719;28;20073;-67
2022/05/05 07:38:37;;;;;;;8.88;5.82;;;11.10;99.90;;;;;;5027133;28;20049;-73
2022/05/05 07:41:03;;;;;;;9.23;5.20;;;11.20;99.90;;;;;;5023631;28;20751;-76
2022/05/05 07:43:29;;;;;;;8.80;4.88;;;11.30;99.90;;;;;;5019831;28;20492;-76
2022/05/05 07:45:54;;;;;;;9.60;5.40;;;11.40;99.90;;;;;;5025725;28;21468;-76
2022/05/05 07:48:20;;;;;;;13.50;5.20;;;11.50;99.90;;;;;;5026636;28;20042;-76
2022/05/05 07:50:47;;;;;;;10.85;5.70;;;11.50;99.90;;;;;;5025487;28;20052;-76
2022/05/05 07:53:16;;;;;;;17.45;5.93;;;11.60;99.90;;;;;;5026478;28;20112;-77
2022/05/05 07:55:42;;;;;;;7.97;5.43;;;11.70;99.90;;;;;;5026051;28;20057;-76
2022/05/05 07:58:07;;;;;;;12.15;6.20;;;11.70;99.90;;;;;;5026720;28;20049;-76
2022/05/05 08:00:33;;;;;;;13.88;5.70;;;11.80;99.90;;;;;;5026871;28;20107;-76
2022/05/05 08:02:59;;;;;;;12.55;4.95;;;11.80;99.90;;;;;;5025731;28;20049;-76
2022/05/05 08:05:25;;;;;;;13.98;6.15;;;12.00;99.90;;;;;;5028118;28;20135;-75
2022/05/05 08:07:51;;;;;;;8.38;5.72;;;12.00;99.90;;;;;;5028245;28;20041;-75
2022/05/05 08:10:21;;;;;;;8.73;4.72;;;12.20;99.90;;;;;;5027348;28;20045;-76
2022/05/05 08:12:47;;;;;;;14.27;5.18;;;12.20;99.90;;;;;;5028025;28;20510;-76
2022/05/05 08:15:16;;;;;;;9.13;4.82;;;12.30;99.90;;;;;;5026543;28;20432;-76
2022/05/05 08:17:43;;;;;;;8.60;5.47;;;12.40;99.90;;;;;;5027345;28;20095;-76
2022/05/05 08:20:10;;;;;;;11.38;5.10;;;12.40;99.90;;;;;;5027748;28;20115;-76
2022/05/05 08:22:37;;;;;;;8.52;5.05;;;12.50;99.90;;;;;;5027847;28;20045;-76
2022/05/05 08:30:32;;;;;;;7.20;4.45;;;12.70;99.90;;;;;;5025610;28;20057;-76
2022/05/05 08:32:57;;;;;;;9.27;5.05;;;12.80;99.90;;;;;;5027823;28;20046;-76
2022/05/05 08:35:24;;;;;;;8.25;5.18;;;12.90;99.90;;;;;;5026736;28;20059;-76
2022/05/05 08:37:53;;;;;;;12.88;5.32;;;13.00;99.90;;;;;;5025641;28;20134;-76
2022/05/05 08:40:23;;;;;;;8.48;4.55;;;13.10;99.90;;;;;;5027372;28;20052;-76
2022/05/05 08:42:49;;;;;;;11.82;4.32;;;13.20;99.90;;;;;;5026243;28;20096;-76
2022/05/05 08:45:15;;;;;;;9.10;4.43;;;13.30;99.90;;;;;;5026397;28;20049;-76
2022/05/05 08:47:42;;;;;;;8.25;4.45;;;13.40;99.90;;;;;;5026456;28;20077;-76
2022/05/05 08:50:10;;;;;;;6.10;4.18;;;13.50;99.90;;;;;;5027265;28;20119;-76
2022/05/05 08:52:40;;;;;;;10.65;4.15;;;13.60;99.90;;;;;;5025421;28;20060;-76
2022/05/05 08:55:06;;;;;;;8.60;4.63;;;13.70;99.90;;;;;;5025536;28;20388;-76
2022/05/05 08:57:32;;;;;;;11.50;4.50;;;13.80;99.90;;;;;;5027243;28;20041;-76
2022/05/05 08:59:57;;;;;;;9.82;4.60;;;13.80;99.90;;;;;;5025615;28;20041;-76
2022/05/05 09:02:24;;;;;;;7.45;3.90;;;13.80;99.90;;;;;;5026197;28;20392;-76
2022/05/05 09:04:49;;;;;;;8.75;4.03;;;13.90;99.90;;;;;;5025990;28;20045;-76
2022/05/05 09:07:15;;;;;;;6.82;3.60;;;14.00;99.90;;;;;;5024799;28;20045;-76
2022/05/05 09:09:41;;;;;;;4.72;3.35;;;14.10;99.90;;;;;;5025720;28;20059;-76
2022/05/05 09:12:20;;;;;;;7.15;4.25;;;14.20;99.90;;;;;;5025171;28;20103;-76
2022/05/05 09:14:47;;;;;;;5.43;3.60;;;14.40;99.90;;;;;;5026211;28;20057;-76
2022/05/05 09:17:15;;;;;;;5.63;3.88;;;14.50;99.90;;;;;;5025544;28;20057;-77
2022/05/05 09:19:43;;;;;;;13.30;5.00;;;14.60;99.90;;;;;;5026889;28;20134;-76
2022/05/05 09:22:09;;;;;;;7.15;4.45;;;14.70;99.90;;;;;;5026767;28;20049;-76
2022/05/05 09:24:36;;;;;;;10.48;5.78;;;14.80;99.90;;;;;;5025382;28;20442;-76
2022/05/05 09:27:24;;;;;;;8.43;5.00;;;14.90;99.90;;;;;;5024625;28;20504;-76
2022/05/05 09:30:02;;;;;;;8.75;5.28;;;15.00;99.90;;;;;;5025648;28;20053;-76
2022/05/05 09:32:29;;;;;;;7.50;4.65;;;15.00;99.90;;;;;;5027252;28;20045;-76
2022/05/05 09:35:00;;;;;;;7.50;4.72;;;15.00;99.90;;;;;;5026237;28;20092;-76
2022/05/05 09:37:25;;;;;;;9.18;5.28;;;15.00;99.90;;;;;;5025897;28;20091;-76
2022/05/05 09:40:02;;;;;;;9.05;4.63;;;15.10;99.90;;;;;;5025241;28;20046;-76
2022/05/05 09:42:42;;;;;;;7.20;5.43;;;15.50;99.90;;;;;;5026325;28;20050;-76
2022/05/05 09:45:41;;;;;;;10.27;5.05;;;15.30;99.90;;;;;;5026397;28;20060;-76
2022/05/05 09:48:13;;;;;;;9.07;5.80;;;15.40;99.90;;;;;;5015308;28;20395;-76
2022/05/05 09:51:02;;;;;;;7.72;5.30;;;15.40;99.90;;;;;;5025845;28;20124;-76
2022/05/05 09:57:40;;;;;;;6.93;4.95;;;15.40;99.90;;;;;;5026087;28;20431;-76
2022/05/05 09:59:42;;;;;;;9.23;5.43;;;15.50;99.90;;;;;;5026294;28;20408;-76
2022/05/05 10:03:59;;;;;;;6.63;5.20;;;15.60;99.90;;;;;;5023778;28;20076;-76
2022/05/05 10:05:05;;;;;;;14.13;6.35;;;15.80;99.90;;;;;;5024641;28;20492;-76
2022/05/05 10:07:31;;;;;;;6.75;4.93;;;15.80;99.90;;;;;;5025343;28;20060;-76
2022/05/05 10:09:57;;;;;;;11.00;5.88;;;15.90;99.90;;;;;;5024613;28;20048;-76
2022/05/05 10:12:24;;;;;;;5.45;4.60;;;16.00;99.90;;;;;;5026147;28;20049;-76
2022/05/05 10:14:50;;;;;;;6.95;5.60;;;16.10;99.90;;;;;;5024978;28;20404;-76
2022/05/05 10:17:17;;;;;;;8.23;5.35;;;16.10;99.90;;;;;;5024323;28;20052;-76
2022/05/05 10:19:43;;;;;;;8.70;6.03;;;16.10;99.90;;;;;;5026398;28;20077;-76
2022/05/05 10:22:13;;;;;;;9.07;5.75;;;16.20;99.90;;;;;;5024290;28;20063;-76
2022/05/05 10:24:46;;;;;;;12.63;6.00;;;16.30;99.90;;;;;;5024360;28;20046;-76
2022/05/05 10:27:12;;;;;;;9.18;6.97;;;16.40;99.90;;;;;;5025785;28;20045;-76
2022/05/05 10:29:42;;;;;;;14.95;6.20;;;16.40;99.90;;;;;;5024614;28;20103;-76
2022/05/05 10:32:28;;;;;;;9.40;6.28;;;16.60;99.90;;;;;;5023821;28;20057;-76
2022/05/05 10:35:08;;;;;;;11.02;7.32;;;16.60;99.90;;;;;;5026169;28;20049;-76
2022/05/05 10:37:38;;;;;;;9.48;6.32;;;16.60;99.90;;;;;;5024404;28;20050;-76
2022/05/05 10:40:09;;;;;;;10.75;7.22;;;16.60;99.90;;;;;;5025937;28;20369;-77
2022/05/05 10:42:40;;;;;;;7.38;5.18;;;16.50;99.90;;;;;;5024511;28;20053;-76
2022/05/05 10:45:16;;;;;;;9.48;6.78;;;16.60;99.90;;;;;;5025232;28;20041;-76
2022/05/05 10:48:01;;;;;;;9.63;6.97;;;16.70;99.90;;;;;;5025830;28;20049;-76
2022/05/05 10:50:56;;;;;;;12.30;7.13;;;16.80;99.90;;;;;;5025211;28;20057;-76
2022/05/05 10:53:40;;;;;;;7.47;6.65;;;16.80;99.90;;;;;;5023460;28;20067;-76
2022/05/05 10:56:23;;;;;;;10.88;7.03;;;16.90;99.90;;;;;;5027984;28;20053;-76
2022/05/05 10:59:07;;;;;;;7.65;6.82;;;16.90;99.90;;;;;;5027529;28;20056;-76
2022/05/05 11:01:44;;;;;;;11.73;7.55;;;17.00;99.90;;;;;;5029479;28;20800;-76
2022/05/05 11:04:15;;;;;;;11.30;7.22;;;17.10;99.90;;;;;;5029369;28;20045;-76
2022/05/05 11:06:44;;;;;;;10.77;7.30;;;17.20;99.90;;;;;;5027206;28;20396;-76
2022/05/05 11:09:29;;;;;;;11.40;8.25;;;17.20;99.90;;;;;;5028017;28;20500;-77
2022/05/05 11:12:17;;;;;;;7.75;6.68;;;17.20;99.90;;;;;;5029908;28;20050;-76
2022/05/05 11:23:42;;;;;;;8.57;6.30;;;17.50;99.90;;;;;;5029611;28;20088;-76
2022/05/05 11:26:09;;;;;;;12.43;6.40;;;17.50;99.90;;;;;;5028882;28;20446;-76
2022/05/05 11:28:36;;;;;;;7.60;6.80;;;17.50;99.90;;;;;;5027325;28;20061;-77
2022/05/05 11:31:02;;;;;;;8.68;6.20;;;17.60;99.90;;;;;;5027199;28;20502;-76
2022/05/05 11:33:28;;;;;;;6.32;5.45;;;17.70;99.90;;;;;;5028770;28;20053;-76
2022/05/05 11:36:00;;;;;;;7.38;5.80;;;17.80;99.90;;;;;;5027918;28;20056;-76
2022/05/05 11:38:28;;;;;;;;;;;19.30;99.90;;;;;;5030269;28;20045;-77
2022/05/05 11:41:17;;;;;;;6.22;5.18;;;18.00;99.90;;;;;;5027256;28;19925;-76
2022/05/05 11:46:27;;;;;;;7.80;6.47;;;18.20;99.90;;;;;;5028000;28;20073;-76
2022/05/05 11:48:55;;;;;;;6.32;5.70;;;18.30;99.90;;;;;;5026990;28;20095;-76
2022/05/05 11:51:25;;;;;;;7.50;6.68;;;18.40;99.90;;;;;;5027373;28;20057;-76
2022/05/05 11:54:02;;;;;;;9.93;6.72;;;18.40;99.90;;;;;;5026940;28;20054;-76
2022/05/05 11:56:28;;;;;;;10.60;7.65;;;18.30;98.30;;;;;;5026653;28;20111;-76
2022/05/05 12:01:41;;;;;;;8.55;6.05;;;18.20;96.10;;;;;;5026653;28;20073;-76
2022/05/05 12:04:09;;;;;;;7.90;6.35;;;18.30;97.90;;;;;;5026863;28;20431;-76
2022/05/05 12:06:37;;;;;;;8.05;6.38;;;18.40;98.10;;;;;;5026556;28;20041;-76
2022/05/05 12:09:04;;;;;;;8.30;6.68;;;18.40;97.10;;;;;;5027250;28;20045;-76
2022/05/05 12:11:30;;;;;;;11.52;6.80;;;18.40;96.80;;;;;;5028513;28;20084;-76
2022/05/05 12:14:09;;;;;;;11.13;6.05;;;18.30;99.20;;;;;;5028702;28;20069;-76
2022/05/05 12:16:36;;;;;;;8.40;6.55;;;18.30;99.90;;;;;;5027398;28;20049;-76
2022/05/05 12:19:13;;;;;;;10.88;8.52;;;18.30;99.90;;;;;;5026167;28;20443;-76
2022/05/05 12:21:53;;;;;;;8.32;6.45;;;18.40;98.10;;;;;;5027113;28;20603;-77
2022/05/05 12:24:22;;;;;;;8.07;5.72;;;18.50;99.90;;;;;;5027419;28;20072;-76
2022/05/05 12:26:48;;;;;;;7.20;5.45;;;18.50;99.90;;;;;;5026469;28;20085;-77
2022/05/05 12:29:15;;;;;;;7.05;5.55;;;18.60;98.40;;;;;;5026739;28;20144;-76
2022/05/05 12:32:00;;;;;;;8.05;6.53;;;18.60;97.60;;;;;;5027263;28;20037;-76
2022/05/05 12:34:27;;;;;;;7.50;5.68;;;18.70;96.00;;;;;;5028694;28;20038;-76
2022/05/05 12:37:18;;;;;;;9.90;6.45;;;18.70;95.70;;;;;;5025512;28;20057;-77
2022/05/05 12:39:56;;;;;;;12.25;7.18;;;18.80;95.60;;;;;;5026570;28;20064;-76
2022/05/05 12:42:22;;;;;;;6.00;5.47;;;18.80;97.50;;;;;;5027379;28;20084;-76
2022/05/05 12:44:49;;;;;;;12.27;6.65;;;18.80;97.50;;;;;;5025773;28;20593;-76
2022/05/05 12:47:22;;;;;;;8.77;6.75;;;18.90;96.40;;;;;;5027483;28;20124;-77
2022/05/05 12:49:47;;;;;;;10.23;6.47;;;19.10;96.10;;;;;;5026370;28;20594;-76
2022/05/05 13:00:25;;;;;;;7.97;6.10;;;19.40;93.80;;;;;;5026552;28;20647;-76
2022/05/05 13:02:51;;;;;;;7.07;6.18;;;19.40;93.30;;;;;;5026168;28;20090;-76
2022/05/05 13:05:17;;;;;;;6.93;6.00;;;19.30;93.20;;;;;;5025071;28;20491;-76
2022/05/05 13:07:43;;;;;;;7.45;5.32;;;19.40;93.50;;;;;;5027562;28;20045;-77
2022/05/05 13:10:09;;;;;;;6.78;6.05;;;19.30;92.20;;;;;;5025691;28;20396;-76
2022/05/05 13:12:35;;;;;;;8.73;5.93;;;19.40;91.40;;;;;;5025489;28;20049;-76
2022/05/05 13:15:00;;;;;;;6.05;4.57;;;19.40;90.70;;;;;;5025211;28;20068;-76
2022/05/05 13:17:26;;;;;;;6.45;4.38;;;19.40;93.10;;;;;;5027056;28;20424;-76
2022/05/05 13:19:51;;;;;;;5.18;3.83;;;19.40;92.00;;;;;;5024697;28;20044;-76
2022/05/05 13:22:17;;;;;;;5.70;4.28;;;19.50;90.20;;;;;;5025562;28;20159;-76
2022/05/05 13:24:45;;;;;;;3.83;3.40;;;19.60;90.50;;;;;;5027135;28;20072;-76
2022/05/05 13:27:11;;;;;;;5.55;3.28;;;19.60;90.00;;;;;;5024738;28;20136;-76
2022/05/05 13:29:36;;;;;;;3.38;2.90;;;19.80;86.20;;;;;;5025454;28;20171;-76
2022/05/05 13:32:02;;;;;;;3.17;2.55;;;20.20;83.30;;;;;;5026549;28;20384;-76
2022/05/05 13:34:28;;;;;;;4.30;3.67;;;19.80;83.90;;;;;;5025255;28;20407;-76
2022/05/05 13:36:53;;;;;;;3.15;2.85;;;19.90;83.10;;;;;;5027295;28;20048;-76
2022/05/05 13:39:19;;;;;;;6.05;3.75;;;20.00;82.40;;;;;;5025197;28;20057;-76
2022/05/05 13:41:45;;;;;;;6.95;3.70;;;20.10;83.30;;;;;;5024621;28;20072;-76
2022/05/05 13:44:10;;;;;;;4.50;3.63;;;20.10;82.40;;;;;;5025353;28;20128;-76